createdAt,value
2019-06-20T00:01:43.975Z,5.55
2019-06-20T00:04:15.990Z,6.22
2019-06-20T00:06:47.857Z,6.37
2019-06-20T00:09:19.719Z,5.92
2019-06-20T00:11:51.957Z,6.20
2019-06-20T00:14:23.973Z,6.62
2019-06-20T00:16:59.414Z,6.10
2019-06-20T00:19:32.770Z,6.37
2019-06-20T00:22:06.492Z,6.33
2019-06-20T00:24:39.911Z,6.72
2019-06-20T00:27:12.260Z,7.10
2019-06-20T00:29:44.209Z,7.15
2019-06-20T00:32:17.284Z,7.50
2019-06-20T00:34:50.816Z,7.15
2019-06-20T00:37:24.734Z,7.72
2019-06-20T00:39:57.274Z,6.58
2019-06-20T00:42:29.446Z,7.08
2019-06-20T00:45:01.771Z,8.00
2019-06-20T00:47:35.825Z,7.47
2019-06-20T00:50:09.115Z,7.75
2019-06-20T00:52:41.382Z,6.97
2019-06-20T00:55:14.380Z,9.23
2019-06-20T00:57:47.578Z,9.23
2019-06-20T01:00:20.571Z,8.05
2019-06-20T01:02:52.813Z,7.60
2019-06-20T01:05:26.856Z,7.80
2019-06-20T01:08:00.994Z,8.58
2019-06-20T01:10:35.164Z,9.45
2019-06-20T01:13:07.136Z,9.95
2019-06-20T01:15:39.296Z,10.48
2019-06-20T01:18:11.580Z,13.58
2019-06-20T01:20:43.895Z,14.43
2019-06-20T01:23:16.220Z,13.18
2019-06-20T01:25:50.743Z,10.65
2019-06-20T01:28:22.782Z,10.28
2019-06-20T01:30:55.050Z,9.55
2019-06-20T01:33:27.224Z,10.78
2019-06-20T01:36:01.241Z,11.15
2019-06-20T01:38:33.115Z,10.85
2019-06-20T01:41:06.363Z,8.58
2019-06-20T01:43:50.192Z,8.20
2019-06-20T01:46:14.722Z,9.03
2019-06-20T01:48:46.674Z,8.03
2019-06-20T01:51:19.250Z,8.13
2019-06-20T01:53:51.443Z,7.67
2019-06-20T01:56:25.142Z,7.75
2019-06-20T01:58:57.212Z,8.18
2019-06-20T02:01:29.583Z,7.85
2019-06-20T02:04:01.853Z,7.50
2019-06-20T02:06:36.811Z,7.90
2019-06-20T02:09:09.337Z,8.75
2019-06-20T02:11:43.428Z,8.23
2019-06-20T02:14:15.847Z,8.85
2019-06-20T02:16:48.090Z,8.78
2019-06-20T02:19:20.271Z,8.03
2019-06-20T02:21:52.861Z,8.90
2019-06-20T02:24:26.768Z,8.98
2019-06-20T02:26:58.904Z,10.35
2019-06-20T02:29:31.088Z,10.55
2019-06-20T02:32:06.466Z,9.15
2019-06-20T02:34:38.484Z,9.20
2019-06-20T02:37:10.660Z,9.88
2019-06-20T02:39:44.349Z,9.73
2019-06-20T02:42:16.754Z,10.00
2019-06-20T02:44:48.720Z,9.00
2019-06-20T02:47:20.885Z,8.60
2019-06-20T02:49:52.949Z,8.35
2019-06-20T02:52:25.019Z,7.17
2019-06-20T02:54:57.489Z,7.15
2019-06-20T02:57:29.756Z,7.17
2019-06-20T03:00:02.013Z,6.33
2019-06-20T03:02:35.217Z,6.70
2019-06-20T03:05:07.597Z,6.72
2019-06-20T03:07:39.862Z,6.87
2019-06-20T03:10:11.792Z,6.70
2019-06-20T03:12:44.890Z,6.83
2019-06-20T03:15:16.750Z,7.45
2019-06-20T03:17:49.013Z,7.12
2019-06-20T03:20:21.719Z,7.37
2019-06-20T03:22:53.555Z,7.30
2019-06-20T03:25:25.924Z,7.12
2019-06-20T03:27:58.229Z,7.35
2019-06-20T03:30:30.976Z,6.67
2019-06-20T03:33:02.987Z,6.70
2019-06-20T03:35:35.210Z,5.70
2019-06-20T03:38:07.789Z,5.92
2019-06-20T03:40:40.081Z,6.30
2019-06-20T03:43:12.146Z,6.40
2019-06-20T03:45:45.236Z,6.20
2019-06-20T03:48:17.709Z,5.80
2019-06-20T03:50:49.777Z,6.03
2019-06-20T03:53:21.841Z,5.47
2019-06-20T03:55:53.708Z,6.40
2019-06-20T03:58:25.652Z,6.17
2019-06-20T04:00:57.664Z,6.87
2019-06-20T04:03:29.996Z,6.80
2019-06-20T04:06:03.215Z,6.80
2019-06-20T04:08:35.535Z,7.25
2019-06-20T04:11:07.703Z,6.47
2019-06-20T04:13:39.562Z,7.33
2019-06-20T04:16:11.550Z,8.03
2019-06-20T04:18:43.716Z,9.03
2019-06-20T04:21:17.372Z,8.45
2019-06-20T04:23:50.868Z,7.33
2019-06-20T04:26:24.685Z,7.10
2019-06-20T04:28:56.760Z,12.78
2019-06-20T04:31:28.784Z,7.97
2019-06-20T04:34:01.968Z,8.63
2019-06-20T04:36:33.890Z,10.40
2019-06-20T04:39:18.612Z,7.45
2019-06-20T04:41:41.190Z,7.08
2019-06-20T04:44:13.378Z,7.17
2019-06-20T04:46:49.820Z,6.87
2019-06-20T04:49:21.880Z,7.42
2019-06-20T04:51:54.057Z,7.87
2019-06-20T04:54:28.054Z,9.08
2019-06-20T04:56:59.947Z,6.85
2019-06-20T04:59:32.218Z,8.65
2019-06-20T05:02:04.195Z,7.92
2019-06-20T05:04:36.043Z,8.95
2019-06-20T05:07:11.488Z,9.60
2019-06-20T05:09:43.724Z,9.43
2019-06-20T05:12:15.613Z,9.88
2019-06-20T05:14:47.760Z,10.53
2019-06-20T05:17:19.949Z,12.65
2019-06-20T05:19:51.901Z,15.18
2019-06-20T05:22:24.259Z,18.95
2019-06-20T05:24:56.323Z,15.10
2019-06-20T05:27:28.513Z,13.58
2019-06-20T05:30:00.680Z,14.10
2019-06-20T05:32:32.727Z,13.05
2019-06-20T05:35:05.601Z,12.65
2019-06-20T05:37:37.898Z,13.75
2019-06-20T05:40:10.271Z,10.35
2019-06-20T05:42:42.540Z,9.58
2019-06-20T05:45:16.301Z,10.65
2019-06-20T05:47:48.077Z,10.82
2019-06-20T05:50:20.561Z,10.43
2019-06-20T05:52:52.951Z,7.97
2019-06-20T05:55:25.016Z,6.95
2019-06-20T05:57:57.869Z,8.53
2019-06-20T06:00:29.963Z,9.80
2019-06-20T06:03:01.928Z,10.68
2019-06-20T06:05:33.668Z,9.50
2019-06-20T06:08:05.826Z,10.50
2019-06-20T06:10:38.121Z,12.23
2019-06-20T06:13:10.352Z,14.45
2019-06-20T06:15:42.506Z,11.05
2019-06-20T06:18:14.606Z,9.80
2019-06-20T06:20:46.457Z,9.35
2019-06-20T06:23:20.236Z,6.92
2019-06-20T06:25:52.566Z,6.72
2019-06-20T06:28:24.728Z,8.00
2019-06-20T06:30:56.895Z,8.35
2019-06-20T06:33:28.753Z,8.93
2019-06-20T06:36:01.878Z,8.85
2019-06-20T06:38:33.831Z,9.08
2019-06-20T06:41:06.482Z,6.75
2019-06-20T06:43:41.843Z,6.67
2019-06-20T06:46:12.549Z,6.22
2019-06-20T06:48:44.549Z,6.47
2019-06-20T06:51:17.108Z,5.80
2019-06-20T06:53:49.061Z,4.70
2019-06-20T06:56:21.125Z,5.08
2019-06-20T06:58:54.045Z,5.10
2019-06-20T07:01:26.488Z,6.00
2019-06-20T07:03:59.675Z,6.10
2019-06-20T07:06:31.764Z,5.42
2019-06-20T07:09:05.524Z,5.28
2019-06-20T07:11:37.584Z,5.97
2019-06-20T07:14:10.599Z,5.50
2019-06-20T07:16:42.664Z,5.47
2019-06-20T07:19:16.057Z,4.60
2019-06-20T07:21:48.350Z,4.60
2019-06-20T07:24:20.504Z,4.72
2019-06-20T07:26:52.539Z,5.00
2019-06-20T07:29:24.838Z,4.33
2019-06-20T07:31:57.103Z,4.17
2019-06-20T07:34:29.038Z,3.67
2019-06-20T07:37:01.174Z,4.62
2019-06-20T07:39:34.908Z,3.72
2019-06-20T07:42:06.897Z,3.80
2019-06-20T07:44:38.955Z,4.30
2019-06-20T07:47:17.487Z,4.15
2019-06-20T07:49:45.931Z,3.83
2019-06-20T07:52:20.136Z,3.90
2019-06-20T07:54:52.034Z,3.90
2019-06-20T07:57:24.303Z,3.50
2019-06-20T07:59:58.140Z,4.03
2019-06-20T08:02:32.130Z,3.72
2019-06-20T08:05:06.114Z,3.72
2019-06-20T08:07:39.622Z,3.17
2019-06-20T08:10:13.773Z,3.52
2019-06-20T08:12:46.110Z,3.05
2019-06-20T08:15:18.015Z,3.02
2019-06-20T08:17:51.239Z,3.52
2019-06-20T08:20:24.355Z,3.12
2019-06-20T08:22:56.727Z,3.17
2019-06-20T08:25:30.356Z,3.20
2019-06-20T08:28:02.607Z,3.20
2019-06-20T08:30:35.907Z,4.30
2019-06-20T08:33:11.923Z,3.10
2019-06-20T08:35:41.883Z,2.65
2019-06-20T08:38:14.219Z,2.90
2019-06-20T08:40:46.299Z,3.17
2019-06-20T08:43:18.135Z,3.00
2019-06-20T08:45:50.429Z,3.55
2019-06-20T08:48:22.369Z,3.52
2019-06-20T08:50:54.357Z,4.05
2019-06-20T08:53:26.271Z,4.25
2019-06-20T08:55:59.411Z,3.12
2019-06-20T08:58:31.983Z,2.50
2019-06-20T09:03:38.871Z,2.20
2019-06-20T09:06:10.947Z,2.90
2019-06-20T09:08:43.202Z,3.52
2019-06-20T09:11:16.603Z,2.40
2019-06-20T09:13:48.777Z,3.00
2019-06-20T09:16:24.580Z,2.55
2019-06-20T09:18:55.054Z,2.20
2019-06-20T09:21:28.966Z,2.70
2019-06-20T09:24:01.126Z,2.87
2019-06-20T09:26:33.315Z,2.83
2019-06-20T09:29:05.296Z,2.47
2019-06-20T09:31:40.010Z,2.67
2019-06-20T09:34:11.968Z,3.77
2019-06-20T09:36:44.195Z,2.65
2019-06-20T09:39:16.593Z,2.15
2019-06-20T09:41:50.225Z,3.00
2019-06-20T09:44:23.784Z,2.13
2019-06-20T09:46:56.393Z,1.92
2019-06-20T09:49:28.443Z,2.58
2019-06-20T09:52:00.947Z,2.87
2019-06-20T09:54:34.077Z,2.50
2019-06-20T09:57:06.372Z,3.55
2019-06-20T09:59:40.668Z,2.50
2019-06-20T10:02:12.515Z,2.55
2019-06-20T10:04:47.560Z,2.62
2019-06-20T10:07:21.174Z,1.98
2019-06-20T10:09:56.315Z,2.55
2019-06-20T10:12:29.825Z,2.20
2019-06-20T10:15:01.885Z,2.67
2019-06-20T10:17:34.882Z,2.33
2019-06-20T10:20:06.936Z,2.20
2019-06-20T10:22:39.316Z,2.52
2019-06-20T10:25:11.373Z,2.15
2019-06-20T10:27:45.981Z,2.30
2019-06-20T10:30:20.957Z,2.47
2019-06-20T10:32:53.252Z,2.15
2019-06-20T10:35:25.470Z,2.58
2019-06-20T10:37:57.442Z,2.62
2019-06-20T10:40:29.677Z,2.85
2019-06-20T10:43:01.855Z,3.77
2019-06-20T10:45:33.910Z,3.47
2019-06-20T10:48:07.180Z,2.67
2019-06-20T10:50:39.385Z,2.17
2019-06-20T10:53:13.402Z,2.33
2019-06-20T10:55:45.455Z,1.98
2019-06-20T10:58:19.149Z,1.72
2019-06-20T11:00:53.086Z,2.30
2019-06-20T11:03:25.149Z,2.33
2019-06-20T11:05:57.014Z,2.60
2019-06-20T11:08:29.125Z,2.17
2019-06-20T11:11:01.444Z,2.22
2019-06-20T11:13:33.481Z,1.60
2019-06-20T11:16:05.348Z,1.98
2019-06-20T11:18:38.357Z,2.40
2019-06-20T11:21:10.713Z,2.80
2019-06-20T11:23:45.251Z,2.22
2019-06-20T11:26:17.777Z,2.22
2019-06-20T11:28:53.274Z,2.40
2019-06-20T11:31:25.577Z,2.33
2019-06-20T11:34:01.190Z,2.10
2019-06-20T11:36:36.973Z,2.77
2019-06-20T11:39:07.680Z,2.65
2019-06-20T11:41:39.820Z,2.45
2019-06-20T11:44:12.625Z,2.60
2019-06-20T11:46:44.560Z,2.40
2019-06-20T11:49:16.653Z,2.40
2019-06-20T11:51:48.946Z,2.50
2019-06-20T11:54:22.613Z,2.20
2019-06-20T11:56:54.465Z,3.30
2019-06-20T11:59:27.739Z,2.25
2019-06-20T12:02:00.249Z,2.40
2019-06-20T12:04:33.800Z,1.92
2019-06-20T12:07:06.204Z,3.35
2019-06-20T12:09:39.563Z,2.33
2019-06-20T12:12:12.099Z,2.02
2019-06-20T12:14:44.274Z,1.82
2019-06-20T12:17:18.145Z,2.80
2019-06-20T12:19:50.373Z,2.40
2019-06-20T12:22:22.183Z,2.40
2019-06-20T12:24:54.290Z,2.40
2019-06-20T12:27:26.291Z,2.40
2019-06-20T12:29:58.705Z,2.35
2019-06-20T12:32:31.075Z,2.20
2019-06-20T12:35:04.472Z,2.15
2019-06-20T12:37:36.609Z,2.12
2019-06-20T12:40:08.916Z,2.20
2019-06-20T12:42:41.800Z,2.55
2019-06-20T12:45:16.490Z,2.87
2019-06-20T12:47:48.583Z,2.50
2019-06-20T12:50:20.648Z,2.02
2019-06-20T12:52:52.686Z,2.52
2019-06-20T12:55:26.918Z,2.60
2019-06-20T12:57:58.584Z,1.67
2019-06-20T13:00:30.953Z,1.75
2019-06-20T13:03:03.232Z,2.95
2019-06-20T13:05:35.181Z,2.22
2019-06-20T13:08:08.278Z,3.17
2019-06-20T13:10:41.811Z,2.62
2019-06-20T13:13:16.142Z,2.22
2019-06-20T13:15:49.002Z,3.08
2019-06-20T13:18:21.461Z,2.70
2019-06-20T13:20:53.492Z,2.45
2019-06-20T13:23:25.354Z,2.20
2019-06-20T13:25:57.238Z,1.85
2019-06-20T13:28:29.303Z,2.50
2019-06-20T13:31:01.488Z,2.30
2019-06-20T13:33:33.727Z,2.35
2019-06-20T13:36:06.833Z,2.60
2019-06-20T13:38:39.973Z,2.17
2019-06-20T13:41:12.909Z,1.70
2019-06-20T13:43:44.848Z,1.60
2019-06-20T13:46:18.356Z,2.17
2019-06-20T13:48:52.564Z,1.87
2019-06-20T13:51:24.854Z,1.95
2019-06-20T13:53:56.915Z,2.55
2019-06-20T13:56:29.007Z,2.42
2019-06-20T13:59:00.917Z,2.00
2019-06-20T14:01:33.216Z,1.82
2019-06-20T14:04:05.584Z,2.33
2019-06-20T14:06:37.651Z,2.33
2019-06-20T14:09:09.816Z,2.40
2019-06-20T14:11:43.194Z,2.40
2019-06-20T14:14:15.468Z,1.92
2019-06-20T14:16:48.421Z,2.20
2019-06-20T14:19:20.729Z,2.05
2019-06-20T14:21:54.238Z,1.90
2019-06-20T14:24:26.313Z,1.90
2019-06-20T14:26:58.704Z,1.90
2019-06-20T14:29:31.810Z,2.00
2019-06-20T14:32:03.831Z,1.95
2019-06-20T14:34:35.648Z,2.22
2019-06-20T14:37:07.986Z,2.12
2019-06-20T14:39:40.028Z,2.12
2019-06-20T14:42:11.985Z,2.20
2019-06-20T14:44:44.705Z,2.20
2019-06-20T14:47:17.629Z,2.50
2019-06-20T14:49:51.387Z,2.47
2019-06-20T14:52:23.842Z,2.37
2019-06-20T14:54:56.095Z,2.40
2019-06-20T14:57:28.241Z,2.10
2019-06-20T15:00:01.474Z,2.10
2019-06-20T15:02:38.596Z,3.60
2019-06-20T15:05:11.633Z,3.55
2019-06-20T15:07:45.090Z,2.70
2019-06-20T15:10:17.244Z,2.42
2019-06-20T15:12:50.243Z,2.35
2019-06-20T15:15:24.790Z,2.00
2019-06-20T15:17:58.173Z,1.80
2019-06-20T15:20:30.368Z,2.40
2019-06-20T15:23:02.347Z,2.60
2019-06-20T15:25:34.497Z,2.45
2019-06-20T15:28:06.774Z,1.90
2019-06-20T15:30:40.726Z,2.17
2019-06-20T15:33:14.772Z,2.45
2019-06-20T15:35:47.231Z,2.40
2019-06-20T15:38:20.540Z,3.27
2019-06-20T15:40:53.608Z,2.47
2019-06-20T15:43:25.667Z,2.30
2019-06-20T15:45:58.406Z,2.27
2019-06-20T15:48:30.520Z,2.80
2019-06-20T15:51:02.732Z,2.47
2019-06-20T15:53:34.896Z,2.33
2019-06-20T15:56:07.268Z,2.37
2019-06-20T15:58:40.196Z,2.30
2019-06-20T16:01:12.438Z,2.65
2019-06-20T16:03:44.585Z,2.20
2019-06-20T16:06:16.654Z,2.87
2019-06-20T16:08:49.920Z,1.87
2019-06-20T16:11:22.019Z,2.80
2019-06-20T16:13:54.044Z,3.30
2019-06-20T16:16:28.023Z,2.50
2019-06-20T16:19:00.033Z,2.83
2019-06-20T16:21:31.906Z,3.27
2019-06-20T16:24:04.402Z,2.75
2019-06-20T16:26:36.224Z,3.37
2019-06-20T16:29:08.726Z,2.98
2019-06-20T16:31:40.783Z,3.08
2019-06-20T16:34:13.040Z,2.87
2019-06-20T16:36:44.961Z,3.55
2019-06-20T16:39:17.378Z,3.33
2019-06-20T16:41:49.609Z,3.35
2019-06-20T16:44:21.886Z,2.25
2019-06-20T16:46:55.124Z,2.92
2019-06-20T16:49:27.152Z,2.70
2019-06-20T16:51:59.413Z,3.60
2019-06-20T16:54:31.789Z,2.98
2019-06-20T16:57:05.090Z,3.02
2019-06-20T16:59:37.488Z,3.75
2019-06-20T17:02:11.334Z,3.47
2019-06-20T17:04:43.977Z,3.05
2019-06-20T17:07:16.350Z,3.27
2019-06-20T17:09:49.794Z,3.55
2019-06-20T17:12:22.114Z,3.87
2019-06-20T17:14:54.050Z,3.27
2019-06-20T17:17:27.013Z,4.00
2019-06-20T17:19:58.977Z,4.17
2019-06-20T17:22:31.005Z,4.12
2019-06-20T17:25:04.490Z,3.92
2019-06-20T17:27:36.483Z,3.52
2019-06-20T17:30:13.581Z,4.03
2019-06-20T17:32:46.716Z,3.40
2019-06-20T17:35:20.612Z,3.60
2019-06-20T17:37:52.598Z,3.75
2019-06-20T17:40:25.070Z,4.37
2019-06-20T17:42:58.669Z,5.05
2019-06-20T17:45:31.402Z,4.58
2019-06-20T17:48:03.546Z,7.35
2019-06-20T17:50:36.115Z,3.90
2019-06-20T17:53:07.930Z,3.83
2019-06-20T17:55:39.892Z,3.83
2019-06-20T17:58:11.935Z,5.90
2019-06-20T18:00:43.936Z,4.72
2019-06-20T18:03:16.011Z,4.72
2019-06-20T18:05:48.175Z,5.65
2019-06-20T18:08:20.213Z,6.87
2019-06-20T18:10:52.291Z,7.17
2019-06-20T18:13:24.310Z,6.53
2019-06-20T18:15:56.290Z,11.33
2019-06-20T18:18:28.096Z,7.37
2019-06-20T18:21:00.124Z,7.35
2019-06-20T18:23:32.135Z,6.85
2019-06-20T18:26:04.529Z,6.10
2019-06-20T18:28:37.950Z,5.60
2019-06-20T18:31:10.319Z,6.17
2019-06-20T18:33:42.855Z,6.28
2019-06-20T18:36:16.669Z,7.12
2019-06-20T18:38:48.674Z,6.97
2019-06-20T18:41:20.735Z,6.17
2019-06-20T18:43:53.327Z,7.87
2019-06-20T18:46:25.412Z,7.33
2019-06-20T18:48:57.357Z,6.83
2019-06-20T18:51:29.376Z,8.73
2019-06-20T18:54:01.531Z,8.78
2019-06-20T18:56:33.521Z,8.80
2019-06-20T18:59:05.512Z,10.35
2019-06-20T19:01:37.809Z,8.90
2019-06-20T19:04:09.912Z,9.60
2019-06-20T19:06:42.237Z,9.50
2019-06-20T19:09:14.146Z,10.35
2019-06-20T19:11:46.573Z,9.30
2019-06-20T19:14:18.518Z,8.68
2019-06-20T19:16:50.614Z,9.80
2019-06-20T19:19:22.674Z,15.15
2019-06-20T19:21:56.062Z,13.80
2019-06-20T19:24:28.144Z,13.40
2019-06-20T19:27:00.195Z,13.60
2019-06-20T19:29:32.387Z,15.15
2019-06-20T19:32:04.734Z,24.95
2019-06-20T19:34:37.078Z,16.10
2019-06-20T19:37:09.391Z,15.15
2019-06-20T19:39:42.902Z,14.23
2019-06-20T19:42:15.454Z,14.50
2019-06-20T19:44:47.489Z,13.28
2019-06-20T19:47:19.671Z,11.70
2019-06-20T19:49:51.589Z,12.20
2019-06-20T19:52:23.761Z,13.95
2019-06-20T19:54:59.175Z,15.50
2019-06-20T19:57:33.732Z,17.60
2019-06-20T20:00:10.413Z,16.10
2019-06-20T20:02:43.407Z,13.62
2019-06-20T20:05:19.516Z,25.70
2019-06-20T20:07:50.622Z,16.65
2019-06-20T20:10:34.880Z,16.65
2019-06-20T20:13:08.908Z,14.80
2019-06-20T20:15:41.378Z,14.25
2019-06-20T20:18:13.853Z,16.57
2019-06-20T20:20:47.622Z,15.28
2019-06-20T20:23:19.810Z,15.53
2019-06-20T20:25:51.883Z,14.43
2019-06-20T20:28:24.030Z,13.40
2019-06-20T20:30:56.433Z,15.23
2019-06-20T20:33:30.214Z,14.00
2019-06-20T20:36:02.425Z,13.58
2019-06-20T20:38:34.467Z,13.40
2019-06-20T20:41:06.592Z,38.48
2019-06-20T20:43:39.110Z,19.12
2019-06-20T20:46:11.367Z,15.68
2019-06-20T20:48:43.421Z,15.20
2019-06-20T20:51:15.933Z,13.65
2019-06-20T20:53:47.966Z,14.05
2019-06-20T20:56:20.109Z,14.60
2019-06-20T20:58:52.400Z,14.73
2019-06-20T21:01:35.497Z,14.20
2019-06-20T21:04:05.563Z,13.62
2019-06-20T21:06:37.932Z,13.98
2019-06-20T21:09:09.985Z,13.30
2019-06-20T21:11:43.484Z,13.05
2019-06-20T21:14:15.690Z,12.82
2019-06-20T21:16:47.756Z,13.85
2019-06-20T21:19:19.781Z,12.55
2019-06-20T21:21:51.820Z,12.63
2019-06-20T21:24:23.964Z,13.13
2019-06-20T21:26:56.292Z,12.20
2019-06-20T21:29:28.480Z,11.68
2019-06-20T21:32:00.839Z,10.90
2019-06-20T21:34:32.980Z,11.68
2019-06-20T21:37:05.167Z,13.72
2019-06-20T21:39:38.821Z,13.78
2019-06-20T21:42:11.042Z,13.13
2019-06-20T21:44:44.335Z,14.75
2019-06-20T21:47:16.580Z,13.93
2019-06-20T21:49:49.795Z,12.58
2019-06-20T21:52:21.959Z,13.05
2019-06-20T21:54:54.101Z,13.68
2019-06-20T21:57:26.296Z,12.15
2019-06-20T21:59:58.337Z,16.80
2019-06-20T22:02:30.723Z,16.87
2019-06-20T22:05:06.351Z,17.82
2019-06-20T22:07:41.314Z,19.35
2019-06-20T22:10:13.668Z,17.60
2019-06-20T22:12:46.158Z,18.05
2019-06-20T22:15:18.429Z,18.25
2019-06-20T22:17:54.028Z,17.87
2019-06-20T22:20:26.452Z,18.98
2019-06-20T22:22:58.618Z,16.60
2019-06-20T22:25:30.802Z,18.90
2019-06-20T22:28:03.463Z,17.32
2019-06-20T22:30:43.718Z,15.93
2019-06-20T22:33:15.869Z,15.72
2019-06-20T22:35:47.953Z,13.32
2019-06-20T22:38:20.324Z,14.03
2019-06-20T22:40:52.589Z,15.40
2019-06-20T22:43:24.713Z,15.30
2019-06-20T22:45:58.149Z,14.45
2019-06-20T22:48:30.324Z,14.45
2019-06-20T22:51:02.403Z,14.60
2019-06-20T22:53:35.984Z,14.45
2019-06-20T22:56:08.270Z,16.02
2019-06-20T22:58:40.225Z,13.30
2019-06-20T23:01:14.006Z,14.60
2019-06-20T23:03:47.118Z,11.65
2019-06-20T23:06:19.021Z,11.05
2019-06-20T23:08:53.038Z,8.88
2019-06-20T23:11:27.159Z,8.88
2019-06-20T23:14:00.426Z,10.32
2019-06-20T23:16:32.839Z,9.48
2019-06-20T23:19:06.947Z,7.53
2019-06-20T23:21:39.148Z,8.23
2019-06-20T23:24:14.048Z,8.48
2019-06-20T23:26:47.281Z,7.95
2019-06-20T23:29:25.495Z,8.08
2019-06-20T23:31:57.699Z,8.10
2019-06-20T23:34:29.794Z,8.10
2019-06-20T23:37:12.184Z,8.60
2019-06-20T23:39:36.379Z,8.53
2019-06-20T23:42:09.672Z,9.08
2019-06-20T23:44:41.952Z,7.22
2019-06-20T23:47:14.274Z,12.82
2019-06-20T23:49:46.406Z,8.93
2019-06-20T23:52:29.091Z,11.22
2019-06-20T23:55:01.286Z,11.30
2019-06-20T23:57:33.454Z,10.20
